Terminal Aerodrome Forecast
Issued by NWS Charleston, WV

Current Version | Previous Version | Graphics & Text | Print | Product List | Glossary On
Versions: 1 2 3 4 5 6 7 8 9 10 11 12 13 14 15 16 17 18 19 20 21
000
FTUS41 KRLX 110200 AAA
TAFBKW
TAF AMD
KBKW 110224Z 1102/1124 03003KT P6SM SCT060
     FM110800 00000KT 4SM BR SCT001
      TEMPO 1108/1111 2SM BR
     FM111200 VRB03KT 5SM BR SKC
     FM111300 VRB03KT P6SM SKC
     FM111500 01004KT P6SM SCT045=

USA.gov is the U.S. government's official web portal to all federal, state and local government web resources and services.